<?xml version="1.0" encoding="UTF-8" standalone="no" ?>
<gpx xmlns="http://www.topografix.com/GPX/1/1" xmlns:xsi="http://www.w3.org/2001/XMLSchema-instance" xsi:schemaLocation="http://www.topografix.com/GPX/1/1 http://www.topografix.com/GPX/1/1/gpx.xsd" version="1.1" creator="VisuGPX - https://www.visugpx.com">
  <metadata>
    <name>secteur Saverne - Dabo - Petite Pierre</name>
  </metadata>
  <trk>
    <name><![CDATA[secteur Saverne - Dabo - Petite Pierre_23]]></name>
    <trkseg>
      <trkpt lat="48.73708" lon="7.25494">
        <ele>295.96</ele>
        <time>2020-05-21T17:14:05.000Z</time>
      </trkpt>
      <trkpt lat="48.73708" lon="7.25494">
        <ele>295.96</ele>
        <time>2020-05-21T17:14:05.000Z</time>
      </trkpt>
      <trkpt lat="48.73708" lon="7.25494">
        <ele>295.96</ele>
        <time>2020-05-21T17:14:05.000Z</time>
      </trkpt>
      <trkpt lat="48.73708" lon="7.25494">
        <ele>295.96</ele>
        <time>2020-05-21T17:14:05.000Z</time>
      </trkpt>
      <trkpt lat="48.73708" lon="7.25494">
        <ele>295.96</ele>
        <time>2020-05-21T17:14:05.000Z</time>
      </trkpt>
      <trkpt lat="48.73708" lon="7.25494">
        <ele>295.96</ele>
        <time>2020-05-21T17:14:05.000Z</time>
      </trkpt>
      <trkpt lat="48.73708" lon="7.25494">
        <ele>295.96</ele>
        <time>2020-05-21T17:14:05.000Z</time>
      </trkpt>
      <trkpt lat="48.73711" lon="7.25489">
        <ele>295.39</ele>
        <time>2020-05-21T17:14:21.000Z</time>
      </trkpt>
      <trkpt lat="48.73717" lon="7.25487">
        <ele>291.99</ele>
        <time>2020-05-21T17:14:29.000Z</time>
      </trkpt>
      <trkpt lat="48.7372" lon="7.2548">
        <ele>295.47</ele>
        <time>2020-05-21T17:14:33.000Z</time>
      </trkpt>
      <trkpt lat="48.73723" lon="7.25474">
        <ele>296.96</ele>
        <time>2020-05-21T17:14:36.000Z</time>
      </trkpt>
      <trkpt lat="48.73727" lon="7.25467">
        <ele>354.67</ele>
        <time>2020-05-21T17:14:39.000Z</time>
      </trkpt>
      <trkpt lat="48.73731" lon="7.2546">
        <ele>331.25</ele>
        <time>2020-05-21T17:14:42.000Z</time>
      </trkpt>
      <trkpt lat="48.73734" lon="7.25455">
        <ele>320.17</ele>
        <time>2020-05-21T17:14:44.000Z</time>
      </trkpt>
      <trkpt lat="48.73738" lon="7.25449">
        <ele>299.13</ele>
        <time>2020-05-21T17:14:56.000Z</time>
      </trkpt>
      <trkpt lat="48.73742" lon="7.25443">
        <ele>298.56</ele>
        <time>2020-05-21T17:15:00.000Z</time>
      </trkpt>
      <trkpt lat="48.73743" lon="7.25435">
        <ele>296.89</ele>
        <time>2020-05-21T17:15:06.000Z</time>
      </trkpt>
      <trkpt lat="48.73745" lon="7.25427">
        <ele>299.14</ele>
        <time>2020-05-21T17:15:09.000Z</time>
      </trkpt>
      <trkpt lat="48.73749" lon="7.25419">
        <ele>298.94</ele>
        <time>2020-05-21T17:15:12.000Z</time>
      </trkpt>
      <trkpt lat="48.73752" lon="7.25414">
        <ele>300.15</ele>
        <time>2020-05-21T17:15:15.000Z</time>
      </trkpt>
      <trkpt lat="48.73757" lon="7.25407">
        <ele>298.21</ele>
        <time>2020-05-21T17:15:19.000Z</time>
      </trkpt>
      <trkpt lat="48.73761" lon="7.254">
        <ele>298.32</ele>
        <time>2020-05-21T17:15:22.000Z</time>
      </trkpt>
      <trkpt lat="48.73766" lon="7.25396">
        <ele>300.31</ele>
        <time>2020-05-21T17:15:26.000Z</time>
      </trkpt>
      <trkpt lat="48.73771" lon="7.25394">
        <ele>301.6</ele>
        <time>2020-05-21T17:15:29.000Z</time>
      </trkpt>
      <trkpt lat="48.73777" lon="7.25394">
        <ele>301.36</ele>
        <time>2020-05-21T17:15:32.000Z</time>
      </trkpt>
      <trkpt lat="48.73781" lon="7.2539">
        <ele>299.79</ele>
        <time>2020-05-21T17:15:38.000Z</time>
      </trkpt>
      <trkpt lat="48.73786" lon="7.25389">
        <ele>306.96</ele>
        <time>2020-05-21T17:15:55.000Z</time>
      </trkpt>
      <trkpt lat="48.73791" lon="7.25392">
        <ele>300.51</ele>
        <time>2020-05-21T17:16:12.000Z</time>
      </trkpt>
      <trkpt lat="48.73795" lon="7.25395">
        <ele>300.47</ele>
        <time>2020-05-21T17:16:19.000Z</time>
      </trkpt>
      <trkpt lat="48.738" lon="7.25396">
        <ele>302.43</ele>
        <time>2020-05-21T17:16:23.000Z</time>
      </trkpt>
      <trkpt lat="48.73805" lon="7.25397">
        <ele>303.25</ele>
        <time>2020-05-21T17:16:26.000Z</time>
      </trkpt>
      <trkpt lat="48.7381" lon="7.25394">
        <ele>310.68</ele>
        <time>2020-05-21T17:16:49.000Z</time>
      </trkpt>
      <trkpt lat="48.73816" lon="7.25393">
        <ele>311.12</ele>
        <time>2020-05-21T17:16:58.000Z</time>
      </trkpt>
      <trkpt lat="48.73822" lon="7.25393">
        <ele>312.6</ele>
        <time>2020-05-21T17:17:01.000Z</time>
      </trkpt>
      <trkpt lat="48.73828" lon="7.25394">
        <ele>311.5</ele>
        <time>2020-05-21T17:17:04.000Z</time>
      </trkpt>
      <trkpt lat="48.73833" lon="7.25397">
        <ele>311.65</ele>
        <time>2020-05-21T17:17:07.000Z</time>
      </trkpt>
      <trkpt lat="48.73838" lon="7.25398">
        <ele>313.83</ele>
        <time>2020-05-21T17:17:11.000Z</time>
      </trkpt>
      <trkpt lat="48.73842" lon="7.25401">
        <ele>315.3</ele>
        <time>2020-05-21T17:17:14.000Z</time>
      </trkpt>
      <trkpt lat="48.73847" lon="7.25404">
        <ele>316.67</ele>
        <time>2020-05-21T17:17:17.000Z</time>
      </trkpt>
      <trkpt lat="48.73852" lon="7.25406">
        <ele>317.47</ele>
        <time>2020-05-21T17:17:20.000Z</time>
      </trkpt>
      <trkpt lat="48.73857" lon="7.25404">
        <ele>319.12</ele>
        <time>2020-05-21T17:17:24.000Z</time>
      </trkpt>
      <trkpt lat="48.73861" lon="7.25401">
        <ele>325.88</ele>
        <time>2020-05-21T17:17:44.000Z</time>
      </trkpt>
      <trkpt lat="48.73867" lon="7.25405">
        <ele>344.8</ele>
        <time>2020-05-21T17:17:48.000Z</time>
      </trkpt>
      <trkpt lat="48.73871" lon="7.25406">
        <ele>338.52</ele>
        <time>2020-05-21T17:17:51.000Z</time>
      </trkpt>
      <trkpt lat="48.73877" lon="7.25409">
        <ele>333.69</ele>
        <time>2020-05-21T17:17:54.000Z</time>
      </trkpt>
      <trkpt lat="48.73882" lon="7.25411">
        <ele>334.71</ele>
        <time>2020-05-21T17:17:57.000Z</time>
      </trkpt>
      <trkpt lat="48.73913" lon="7.2542">
        <ele>333.62</ele>
        <time>2020-05-21T17:18:14.000Z</time>
      </trkpt>
      <trkpt lat="48.73919" lon="7.25424">
        <ele>333.98</ele>
        <time>2020-05-21T17:18:18.000Z</time>
      </trkpt>
      <trkpt lat="48.73923" lon="7.25426">
        <ele>333.7</ele>
        <time>2020-05-21T17:18:22.000Z</time>
      </trkpt>
      <trkpt lat="48.73929" lon="7.25428">
        <ele>337.4</ele>
        <time>2020-05-21T17:18:28.000Z</time>
      </trkpt>
      <trkpt lat="48.73934" lon="7.25429">
        <ele>339.37</ele>
        <time>2020-05-21T17:18:32.000Z</time>
      </trkpt>
      <trkpt lat="48.73939" lon="7.25431">
        <ele>337.28</ele>
        <time>2020-05-21T17:18:36.000Z</time>
      </trkpt>
      <trkpt lat="48.73944" lon="7.25434">
        <ele>339.89</ele>
        <time>2020-05-21T17:18:40.000Z</time>
      </trkpt>
      <trkpt lat="48.73949" lon="7.25435">
        <ele>342.06</ele>
        <time>2020-05-21T17:18:43.000Z</time>
      </trkpt>
      <trkpt lat="48.73952" lon="7.2544">
        <ele>347.02</ele>
        <time>2020-05-21T17:19:00.000Z</time>
      </trkpt>
      <trkpt lat="48.73948" lon="7.25445">
        <ele>349.71</ele>
        <time>2020-05-21T17:19:17.000Z</time>
      </trkpt>
      <trkpt lat="48.73944" lon="7.25448">
        <ele>352.74</ele>
        <time>2020-05-21T17:19:23.000Z</time>
      </trkpt>
      <trkpt lat="48.73939" lon="7.25449">
        <ele>353.08</ele>
        <time>2020-05-21T17:19:27.000Z</time>
      </trkpt>
      <trkpt lat="48.73934" lon="7.2545">
        <ele>352.88</ele>
        <time>2020-05-21T17:19:32.000Z</time>
      </trkpt>
      <trkpt lat="48.73933" lon="7.25457">
        <ele>356.69</ele>
        <time>2020-05-21T17:19:44.000Z</time>
      </trkpt>
      <trkpt lat="48.73928" lon="7.25459">
        <ele>356.39</ele>
        <time>2020-05-21T17:19:48.000Z</time>
      </trkpt>
      <trkpt lat="48.73923" lon="7.25462">
        <ele>360.11</ele>
        <time>2020-05-21T17:20:13.000Z</time>
      </trkpt>
      <trkpt lat="48.73919" lon="7.25458">
        <ele>364.9</ele>
        <time>2020-05-21T17:20:26.000Z</time>
      </trkpt>
      <trkpt lat="48.73914" lon="7.25459">
        <ele>365.71</ele>
        <time>2020-05-21T17:20:31.000Z</time>
      </trkpt>
      <trkpt lat="48.7391" lon="7.25462">
        <ele>366.03</ele>
        <time>2020-05-21T17:20:35.000Z</time>
      </trkpt>
      <trkpt lat="48.73906" lon="7.25465">
        <ele>365.82</ele>
        <time>2020-05-21T17:20:39.000Z</time>
      </trkpt>
      <trkpt lat="48.73901" lon="7.25468">
        <ele>361.33</ele>
        <time>2020-05-21T17:20:57.000Z</time>
      </trkpt>
      <trkpt lat="48.73897" lon="7.25467">
        <ele>359.97</ele>
        <time>2020-05-21T17:21:00.000Z</time>
      </trkpt>
      <trkpt lat="48.73892" lon="7.25464">
        <ele>358.17</ele>
        <time>2020-05-21T17:21:03.000Z</time>
      </trkpt>
      <trkpt lat="48.73887" lon="7.25462">
        <ele>356.25</ele>
        <time>2020-05-21T17:21:06.000Z</time>
      </trkpt>
      <trkpt lat="48.73883" lon="7.25465">
        <ele>354.62</ele>
        <time>2020-05-21T17:21:11.000Z</time>
      </trkpt>
      <trkpt lat="48.73878" lon="7.25469">
        <ele>352.92</ele>
        <time>2020-05-21T17:21:15.000Z</time>
      </trkpt>
      <trkpt lat="48.73872" lon="7.25467">
        <ele>352.04</ele>
        <time>2020-05-21T17:21:18.000Z</time>
      </trkpt>
      <trkpt lat="48.73867" lon="7.25468">
        <ele>350.64</ele>
        <time>2020-05-21T17:21:21.000Z</time>
      </trkpt>
      <trkpt lat="48.73861" lon="7.25469">
        <ele>351.82</ele>
        <time>2020-05-21T17:21:24.000Z</time>
      </trkpt>
      <trkpt lat="48.73856" lon="7.2547">
        <ele>354.18</ele>
        <time>2020-05-21T17:21:27.000Z</time>
      </trkpt>
      <trkpt lat="48.7385" lon="7.25473">
        <ele>350.66</ele>
        <time>2020-05-21T17:21:31.000Z</time>
      </trkpt>
      <trkpt lat="48.73844" lon="7.25477">
        <ele>348.99</ele>
        <time>2020-05-21T17:21:34.000Z</time>
      </trkpt>
      <trkpt lat="48.7384" lon="7.2548">
        <ele>348.2</ele>
        <time>2020-05-21T17:21:37.000Z</time>
      </trkpt>
      <trkpt lat="48.73836" lon="7.25486">
        <ele>346.68</ele>
        <time>2020-05-21T17:21:40.000Z</time>
      </trkpt>
      <trkpt lat="48.73833" lon="7.25492">
        <ele>349.1</ele>
        <time>2020-05-21T17:21:43.000Z</time>
      </trkpt>
      <trkpt lat="48.73829" lon="7.25496">
        <ele>351.75</ele>
        <time>2020-05-21T17:21:46.000Z</time>
      </trkpt>
      <trkpt lat="48.73825" lon="7.255">
        <ele>354.24</ele>
        <time>2020-05-21T17:21:50.000Z</time>
      </trkpt>
      <trkpt lat="48.73821" lon="7.25506">
        <ele>356.01</ele>
        <time>2020-05-21T17:21:54.000Z</time>
      </trkpt>
      <trkpt lat="48.73818" lon="7.25511">
        <ele>356.38</ele>
        <time>2020-05-21T17:21:58.000Z</time>
      </trkpt>
      <trkpt lat="48.73812" lon="7.25515">
        <ele>355.75</ele>
        <time>2020-05-21T17:22:01.000Z</time>
      </trkpt>
      <trkpt lat="48.73807" lon="7.25519">
        <ele>370</ele>
        <time>2020-05-21T17:22:04.000Z</time>
      </trkpt>
      <trkpt lat="48.73801" lon="7.25522">
        <ele>365.85</ele>
        <time>2020-05-21T17:22:07.000Z</time>
      </trkpt>
      <trkpt lat="48.73794" lon="7.25525">
        <ele>363.81</ele>
        <time>2020-05-21T17:22:10.000Z</time>
      </trkpt>
      <trkpt lat="48.73789" lon="7.25528">
        <ele>366.46</ele>
        <time>2020-05-21T17:22:13.000Z</time>
      </trkpt>
      <trkpt lat="48.73784" lon="7.25532">
        <ele>362.5</ele>
        <time>2020-05-21T17:22:16.000Z</time>
      </trkpt>
      <trkpt lat="48.73776" lon="7.25544">
        <ele>362.11</ele>
        <time>2020-05-21T17:22:21.000Z</time>
      </trkpt>
      <trkpt lat="48.73774" lon="7.25552">
        <ele>364.72</ele>
        <time>2020-05-21T17:22:24.000Z</time>
      </trkpt>
      <trkpt lat="48.73773" lon="7.25561">
        <ele>366.89</ele>
        <time>2020-05-21T17:22:27.000Z</time>
      </trkpt>
      <trkpt lat="48.73777" lon="7.25566">
        <ele>370</ele>
        <time>2020-05-21T17:22:31.000Z</time>
      </trkpt>
      <trkpt lat="48.73781" lon="7.25569">
        <ele>367.53</ele>
        <time>2020-05-21T17:22:34.000Z</time>
      </trkpt>
      <trkpt lat="48.73786" lon="7.25574">
        <ele>367.84</ele>
        <time>2020-05-21T17:22:38.000Z</time>
      </trkpt>
      <trkpt lat="48.73791" lon="7.25576">
        <ele>369.4</ele>
        <time>2020-05-21T17:22:41.000Z</time>
      </trkpt>
      <trkpt lat="48.73796" lon="7.25576">
        <ele>371.68</ele>
        <time>2020-05-21T17:22:44.000Z</time>
      </trkpt>
      <trkpt lat="48.73801" lon="7.25577">
        <ele>370.21</ele>
        <time>2020-05-21T17:22:47.000Z</time>
      </trkpt>
      <trkpt lat="48.73807" lon="7.25579">
        <ele>368</ele>
        <time>2020-05-21T17:22:50.000Z</time>
      </trkpt>
      <trkpt lat="48.73812" lon="7.25583">
        <ele>368.4</ele>
        <time>2020-05-21T17:22:53.000Z</time>
      </trkpt>
      <trkpt lat="48.73817" lon="7.25583">
        <ele>366.55</ele>
        <time>2020-05-21T17:22:56.000Z</time>
      </trkpt>
      <trkpt lat="48.73822" lon="7.25584">
        <ele>367.84</ele>
        <time>2020-05-21T17:23:00.000Z</time>
      </trkpt>
      <trkpt lat="48.73827" lon="7.25587">
        <ele>370.56</ele>
        <time>2020-05-21T17:23:04.000Z</time>
      </trkpt>
      <trkpt lat="48.73832" lon="7.25589">
        <ele>377.26</ele>
        <time>2020-05-21T17:23:09.000Z</time>
      </trkpt>
      <trkpt lat="48.73837" lon="7.2559">
        <ele>379.05</ele>
        <time>2020-05-21T17:23:14.000Z</time>
      </trkpt>
      <trkpt lat="48.73841" lon="7.25589">
        <ele>377.56</ele>
        <time>2020-05-21T17:23:44.000Z</time>
      </trkpt>
      <trkpt lat="48.73846" lon="7.25588">
        <ele>374.4</ele>
        <time>2020-05-21T17:23:58.000Z</time>
      </trkpt>
      <trkpt lat="48.73851" lon="7.2559">
        <ele>378.4</ele>
        <time>2020-05-21T17:24:01.000Z</time>
      </trkpt>
      <trkpt lat="48.73857" lon="7.25591">
        <ele>380.2</ele>
        <time>2020-05-21T17:24:04.000Z</time>
      </trkpt>
      <trkpt lat="48.73861" lon="7.25594">
        <ele>381.16</ele>
        <time>2020-05-21T17:24:07.000Z</time>
      </trkpt>
      <trkpt lat="48.73866" lon="7.25597">
        <ele>382.19</ele>
        <time>2020-05-21T17:24:11.000Z</time>
      </trkpt>
      <trkpt lat="48.7387" lon="7.25598">
        <ele>383.57</ele>
        <time>2020-05-21T17:24:14.000Z</time>
      </trkpt>
      <trkpt lat="48.73877" lon="7.256">
        <ele>384.9</ele>
        <time>2020-05-21T17:24:18.000Z</time>
      </trkpt>
      <trkpt lat="48.73883" lon="7.25603">
        <ele>386.15</ele>
        <time>2020-05-21T17:24:21.000Z</time>
      </trkpt>
      <trkpt lat="48.73888" lon="7.25603">
        <ele>383.89</ele>
        <time>2020-05-21T17:24:23.000Z</time>
      </trkpt>
      <trkpt lat="48.73893" lon="7.25605">
        <ele>385.26</ele>
        <time>2020-05-21T17:24:26.000Z</time>
      </trkpt>
      <trkpt lat="48.73898" lon="7.25608">
        <ele>385.82</ele>
        <time>2020-05-21T17:24:29.000Z</time>
      </trkpt>
      <trkpt lat="48.73902" lon="7.2561">
        <ele>386.99</ele>
        <time>2020-05-21T17:24:32.000Z</time>
      </trkpt>
      <trkpt lat="48.73908" lon="7.25611">
        <ele>386.73</ele>
        <time>2020-05-21T17:24:36.000Z</time>
      </trkpt>
      <trkpt lat="48.73914" lon="7.2561">
        <ele>386.24</ele>
        <time>2020-05-21T17:24:39.000Z</time>
      </trkpt>
      <trkpt lat="48.7392" lon="7.25609">
        <ele>385.61</ele>
        <time>2020-05-21T17:24:41.000Z</time>
      </trkpt>
      <trkpt lat="48.73925" lon="7.25607">
        <ele>383.85</ele>
        <time>2020-05-21T17:24:43.000Z</time>
      </trkpt>
      <trkpt lat="48.7393" lon="7.25605">
        <ele>385.37</ele>
        <time>2020-05-21T17:24:45.000Z</time>
      </trkpt>
      <trkpt lat="48.73935" lon="7.25604">
        <ele>382.64</ele>
        <time>2020-05-21T17:24:47.000Z</time>
      </trkpt>
      <trkpt lat="48.73941" lon="7.25605">
        <ele>382.81</ele>
        <time>2020-05-21T17:24:49.000Z</time>
      </trkpt>
      <trkpt lat="48.73947" lon="7.25608">
        <ele>384.66</ele>
        <time>2020-05-21T17:24:51.000Z</time>
      </trkpt>
      <trkpt lat="48.73954" lon="7.2561">
        <ele>384.1</ele>
        <time>2020-05-21T17:24:53.000Z</time>
      </trkpt>
      <trkpt lat="48.7396" lon="7.25612">
        <ele>384.69</ele>
        <time>2020-05-21T17:24:55.000Z</time>
      </trkpt>
      <trkpt lat="48.73965" lon="7.25614">
        <ele>385.23</ele>
        <time>2020-05-21T17:24:58.000Z</time>
      </trkpt>
      <trkpt lat="48.73971" lon="7.25616">
        <ele>382.58</ele>
        <time>2020-05-21T17:25:00.000Z</time>
      </trkpt>
      <trkpt lat="48.73978" lon="7.25618">
        <ele>382.61</ele>
        <time>2020-05-21T17:25:02.000Z</time>
      </trkpt>
      <trkpt lat="48.73985" lon="7.25619">
        <ele>384.73</ele>
        <time>2020-05-21T17:25:04.000Z</time>
      </trkpt>
      <trkpt lat="48.73992" lon="7.2562">
        <ele>388.47</ele>
        <time>2020-05-21T17:25:06.000Z</time>
      </trkpt>
      <trkpt lat="48.73998" lon="7.2562">
        <ele>391.29</ele>
        <time>2020-05-21T17:25:08.000Z</time>
      </trkpt>
      <trkpt lat="48.74004" lon="7.25619">
        <ele>388.32</ele>
        <time>2020-05-21T17:25:10.000Z</time>
      </trkpt>
      <trkpt lat="48.7401" lon="7.25617">
        <ele>389.52</ele>
        <time>2020-05-21T17:25:12.000Z</time>
      </trkpt>
      <trkpt lat="48.74017" lon="7.25616">
        <ele>388.65</ele>
        <time>2020-05-21T17:25:14.000Z</time>
      </trkpt>
      <trkpt lat="48.74023" lon="7.25613">
        <ele>388.74</ele>
        <time>2020-05-21T17:25:16.000Z</time>
      </trkpt>
      <trkpt lat="48.74029" lon="7.2561">
        <ele>388.95</ele>
        <time>2020-05-21T17:25:18.000Z</time>
      </trkpt>
      <trkpt lat="48.74035" lon="7.25607">
        <ele>389.91</ele>
        <time>2020-05-21T17:25:20.000Z</time>
      </trkpt>
      <trkpt lat="48.74041" lon="7.25604">
        <ele>389.04</ele>
        <time>2020-05-21T17:25:22.000Z</time>
      </trkpt>
      <trkpt lat="48.74047" lon="7.25603">
        <ele>386.59</ele>
        <time>2020-05-21T17:25:24.000Z</time>
      </trkpt>
      <trkpt lat="48.74052" lon="7.25603">
        <ele>388.45</ele>
        <time>2020-05-21T17:25:26.000Z</time>
      </trkpt>
      <trkpt lat="48.74057" lon="7.25603">
        <ele>388.01</ele>
        <time>2020-05-21T17:25:28.000Z</time>
      </trkpt>
      <trkpt lat="48.74064" lon="7.25602">
        <ele>387.84</ele>
        <time>2020-05-21T17:25:30.000Z</time>
      </trkpt>
      <trkpt lat="48.74069" lon="7.25602">
        <ele>389.83</ele>
        <time>2020-05-21T17:25:32.000Z</time>
      </trkpt>
      <trkpt lat="48.74075" lon="7.25603">
        <ele>390.62</ele>
        <time>2020-05-21T17:25:34.000Z</time>
      </trkpt>
      <trkpt lat="48.74081" lon="7.25602">
        <ele>391.57</ele>
        <time>2020-05-21T17:25:36.000Z</time>
      </trkpt>
      <trkpt lat="48.74087" lon="7.25602">
        <ele>391.78</ele>
        <time>2020-05-21T17:25:38.000Z</time>
      </trkpt>
      <trkpt lat="48.74093" lon="7.25603">
        <ele>392.46</ele>
        <time>2020-05-21T17:25:40.000Z</time>
      </trkpt>
      <trkpt lat="48.74098" lon="7.25603">
        <ele>393.56</ele>
        <time>2020-05-21T17:25:42.000Z</time>
      </trkpt>
      <trkpt lat="48.74103" lon="7.25603">
        <ele>392.69</ele>
        <time>2020-05-21T17:25:44.000Z</time>
      </trkpt>
      <trkpt lat="48.74111" lon="7.25602">
        <ele>389.97</ele>
        <time>2020-05-21T17:25:46.000Z</time>
      </trkpt>
      <trkpt lat="48.74117" lon="7.25604">
        <ele>391.52</ele>
        <time>2020-05-21T17:25:48.000Z</time>
      </trkpt>
      <trkpt lat="48.74124" lon="7.25607">
        <ele>391.56</ele>
        <time>2020-05-21T17:25:50.000Z</time>
      </trkpt>
      <trkpt lat="48.74132" lon="7.2561">
        <ele>392.11</ele>
        <time>2020-05-21T17:25:52.000Z</time>
      </trkpt>
      <trkpt lat="48.74139" lon="7.25612">
        <ele>393.68</ele>
        <time>2020-05-21T17:25:54.000Z</time>
      </trkpt>
      <trkpt lat="48.74146" lon="7.25615">
        <ele>393</ele>
        <time>2020-05-21T17:25:56.000Z</time>
      </trkpt>
      <trkpt lat="48.74151" lon="7.25618">
        <ele>392.59</ele>
        <time>2020-05-21T17:25:58.000Z</time>
      </trkpt>
      <trkpt lat="48.74155" lon="7.25623">
        <ele>391.44</ele>
        <time>2020-05-21T17:26:00.000Z</time>
      </trkpt>
      <trkpt lat="48.74159" lon="7.25627">
        <ele>392.8</ele>
        <time>2020-05-21T17:26:02.000Z</time>
      </trkpt>
      <trkpt lat="48.74165" lon="7.25631">
        <ele>392.17</ele>
        <time>2020-05-21T17:26:04.000Z</time>
      </trkpt>
      <trkpt lat="48.7417" lon="7.25635">
        <ele>393.92</ele>
        <time>2020-05-21T17:26:06.000Z</time>
      </trkpt>
      <trkpt lat="48.74176" lon="7.25639">
        <ele>395.27</ele>
        <time>2020-05-21T17:26:08.000Z</time>
      </trkpt>
      <trkpt lat="48.74181" lon="7.25643">
        <ele>395.43</ele>
        <time>2020-05-21T17:26:10.000Z</time>
      </trkpt>
      <trkpt lat="48.74186" lon="7.25647">
        <ele>395.66</ele>
        <time>2020-05-21T17:26:12.000Z</time>
      </trkpt>
      <trkpt lat="48.74192" lon="7.25653">
        <ele>395.21</ele>
        <time>2020-05-21T17:26:15.000Z</time>
      </trkpt>
      <trkpt lat="48.74197" lon="7.25661">
        <ele>393.9</ele>
        <time>2020-05-21T17:26:17.000Z</time>
      </trkpt>
      <trkpt lat="48.74203" lon="7.25668">
        <ele>394.61</ele>
        <time>2020-05-21T17:26:19.000Z</time>
      </trkpt>
      <trkpt lat="48.74209" lon="7.25674">
        <ele>394.07</ele>
        <time>2020-05-21T17:26:21.000Z</time>
      </trkpt>
      <trkpt lat="48.74213" lon="7.25678">
        <ele>397.02</ele>
        <time>2020-05-21T17:26:23.000Z</time>
      </trkpt>
      <trkpt lat="48.74217" lon="7.25682">
        <ele>398.87</ele>
        <time>2020-05-21T17:26:25.000Z</time>
      </trkpt>
      <trkpt lat="48.74222" lon="7.25687">
        <ele>399.94</ele>
        <time>2020-05-21T17:26:27.000Z</time>
      </trkpt>
      <trkpt lat="48.74226" lon="7.25692">
        <ele>398.16</ele>
        <time>2020-05-21T17:26:29.000Z</time>
      </trkpt>
      <trkpt lat="48.7423" lon="7.25698">
        <ele>398.4</ele>
        <time>2020-05-21T17:26:31.000Z</time>
      </trkpt>
      <trkpt lat="48.74234" lon="7.25705">
        <ele>398.43</ele>
        <time>2020-05-21T17:26:33.000Z</time>
      </trkpt>
      <trkpt lat="48.74238" lon="7.2571">
        <ele>399.2</ele>
        <time>2020-05-21T17:26:35.000Z</time>
      </trkpt>
      <trkpt lat="48.74246" lon="7.2572">
        <ele>401.26</ele>
        <time>2020-05-21T17:26:39.000Z</time>
      </trkpt>
      <trkpt lat="48.74251" lon="7.25727">
        <ele>400.5</ele>
        <time>2020-05-21T17:26:42.000Z</time>
      </trkpt>
      <trkpt lat="48.74255" lon="7.25733">
        <ele>392.21</ele>
        <time>2020-05-21T17:26:44.000Z</time>
      </trkpt>
      <trkpt lat="48.74259" lon="7.25739">
        <ele>397.07</ele>
        <time>2020-05-21T17:26:46.000Z</time>
      </trkpt>
      <trkpt lat="48.74264" lon="7.25745">
        <ele>396.78</ele>
        <time>2020-05-21T17:26:48.000Z</time>
      </trkpt>
      <trkpt lat="48.74268" lon="7.2575">
        <ele>397.68</ele>
        <time>2020-05-21T17:26:50.000Z</time>
      </trkpt>
      <trkpt lat="48.74272" lon="7.25755">
        <ele>398.27</ele>
        <time>2020-05-21T17:26:52.000Z</time>
      </trkpt>
      <trkpt lat="48.74277" lon="7.25761">
        <ele>398.25</ele>
        <time>2020-05-21T17:26:54.000Z</time>
      </trkpt>
      <trkpt lat="48.74282" lon="7.25766">
        <ele>398.6</ele>
        <time>2020-05-21T17:26:56.000Z</time>
      </trkpt>
      <trkpt lat="48.74286" lon="7.25771">
        <ele>397.19</ele>
        <time>2020-05-21T17:26:58.000Z</time>
      </trkpt>
      <trkpt lat="48.74291" lon="7.25776">
        <ele>396.96</ele>
        <time>2020-05-21T17:27:01.000Z</time>
      </trkpt>
      <trkpt lat="48.74296" lon="7.2578">
        <ele>398.88</ele>
        <time>2020-05-21T17:27:03.000Z</time>
      </trkpt>
      <trkpt lat="48.743" lon="7.25784">
        <ele>398.97</ele>
        <time>2020-05-21T17:27:05.000Z</time>
      </trkpt>
      <trkpt lat="48.74306" lon="7.25788">
        <ele>399.16</ele>
        <time>2020-05-21T17:27:07.000Z</time>
      </trkpt>
      <trkpt lat="48.7431" lon="7.25793">
        <ele>397.5</ele>
        <time>2020-05-21T17:27:09.000Z</time>
      </trkpt>
      <trkpt lat="48.74314" lon="7.25797">
        <ele>398.49</ele>
        <time>2020-05-21T17:27:11.000Z</time>
      </trkpt>
      <trkpt lat="48.74318" lon="7.25801">
        <ele>401.37</ele>
        <time>2020-05-21T17:27:13.000Z</time>
      </trkpt>
      <trkpt lat="48.74324" lon="7.25806">
        <ele>402.15</ele>
        <time>2020-05-21T17:27:16.000Z</time>
      </trkpt>
      <trkpt lat="48.74329" lon="7.25809">
        <ele>401.87</ele>
        <time>2020-05-21T17:27:19.000Z</time>
      </trkpt>
      <trkpt lat="48.74334" lon="7.25812">
        <ele>402.54</ele>
        <time>2020-05-21T17:27:21.000Z</time>
      </trkpt>
      <trkpt lat="48.7434" lon="7.25815">
        <ele>404.97</ele>
        <time>2020-05-21T17:27:24.000Z</time>
      </trkpt>
      <trkpt lat="48.74346" lon="7.25817">
        <ele>404.82</ele>
        <time>2020-05-21T17:27:26.000Z</time>
      </trkpt>
      <trkpt lat="48.7435" lon="7.2582">
        <ele>404.62</ele>
        <time>2020-05-21T17:27:28.000Z</time>
      </trkpt>
      <trkpt lat="48.74356" lon="7.25824">
        <ele>403.75</ele>
        <time>2020-05-21T17:27:31.000Z</time>
      </trkpt>
      <trkpt lat="48.74362" lon="7.25825">
        <ele>403.63</ele>
        <time>2020-05-21T17:27:34.000Z</time>
      </trkpt>
      <trkpt lat="48.74367" lon="7.25828">
        <ele>402.44</ele>
        <time>2020-05-21T17:27:36.000Z</time>
      </trkpt>
      <trkpt lat="48.74372" lon="7.25832">
        <ele>402.72</ele>
        <time>2020-05-21T17:27:38.000Z</time>
      </trkpt>
      <trkpt lat="48.74377" lon="7.25833">
        <ele>402.01</ele>
        <time>2020-05-21T17:27:40.000Z</time>
      </trkpt>
      <trkpt lat="48.74382" lon="7.25834">
        <ele>400.42</ele>
        <time>2020-05-21T17:27:42.000Z</time>
      </trkpt>
      <trkpt lat="48.74387" lon="7.25834">
        <ele>399.89</ele>
        <time>2020-05-21T17:27:44.000Z</time>
      </trkpt>
      <trkpt lat="48.74393" lon="7.25832">
        <ele>401.41</ele>
        <time>2020-05-21T17:27:46.000Z</time>
      </trkpt>
      <trkpt lat="48.744" lon="7.25831">
        <ele>403.78</ele>
        <time>2020-05-21T17:27:48.000Z</time>
      </trkpt>
      <trkpt lat="48.74406" lon="7.2583">
        <ele>406.8</ele>
        <time>2020-05-21T17:27:50.000Z</time>
      </trkpt>
      <trkpt lat="48.74412" lon="7.2583">
        <ele>406.97</ele>
        <time>2020-05-21T17:27:52.000Z</time>
      </trkpt>
      <trkpt lat="48.74417" lon="7.2583">
        <ele>407.32</ele>
        <time>2020-05-21T17:27:54.000Z</time>
      </trkpt>
      <trkpt lat="48.74423" lon="7.2583">
        <ele>405.27</ele>
        <time>2020-05-21T17:27:56.000Z</time>
      </trkpt>
      <trkpt lat="48.74429" lon="7.25829">
        <ele>405.8</ele>
        <time>2020-05-21T17:27:58.000Z</time>
      </trkpt>
      <trkpt lat="48.74435" lon="7.25828">
        <ele>406.42</ele>
        <time>2020-05-21T17:28:00.000Z</time>
      </trkpt>
      <trkpt lat="48.74441" lon="7.25828">
        <ele>406.96</ele>
        <time>2020-05-21T17:28:02.000Z</time>
      </trkpt>
      <trkpt lat="48.74447" lon="7.25826">
        <ele>407.16</ele>
        <time>2020-05-21T17:28:04.000Z</time>
      </trkpt>
      <trkpt lat="48.74451" lon="7.25824">
        <ele>407.44</ele>
        <time>2020-05-21T17:28:06.000Z</time>
      </trkpt>
      <trkpt lat="48.74457" lon="7.25822">
        <ele>407.23</ele>
        <time>2020-05-21T17:28:08.000Z</time>
      </trkpt>
      <trkpt lat="48.74463" lon="7.25821">
        <ele>407.54</ele>
        <time>2020-05-21T17:28:10.000Z</time>
      </trkpt>
      <trkpt lat="48.74469" lon="7.2582">
        <ele>407.73</ele>
        <time>2020-05-21T17:28:12.000Z</time>
      </trkpt>
      <trkpt lat="48.74476" lon="7.25819">
        <ele>407.81</ele>
        <time>2020-05-21T17:28:14.000Z</time>
      </trkpt>
      <trkpt lat="48.74484" lon="7.25819">
        <ele>408.38</ele>
        <time>2020-05-21T17:28:16.000Z</time>
      </trkpt>
      <trkpt lat="48.74493" lon="7.25819">
        <ele>407.77</ele>
        <time>2020-05-21T17:28:18.000Z</time>
      </trkpt>
      <trkpt lat="48.74502" lon="7.25818">
        <ele>407.91</ele>
        <time>2020-05-21T17:28:20.000Z</time>
      </trkpt>
      <trkpt lat="48.74511" lon="7.25819">
        <ele>407.37</ele>
        <time>2020-05-21T17:28:22.000Z</time>
      </trkpt>
      <trkpt lat="48.74516" lon="7.25821">
        <ele>407.31</ele>
        <time>2020-05-21T17:28:23.000Z</time>
      </trkpt>
      <trkpt lat="48.74525" lon="7.25823">
        <ele>408.51</ele>
        <time>2020-05-21T17:28:25.000Z</time>
      </trkpt>
      <trkpt lat="48.74534" lon="7.25824">
        <ele>406.73</ele>
        <time>2020-05-21T17:28:27.000Z</time>
      </trkpt>
      <trkpt lat="48.74542" lon="7.25825">
        <ele>405.76</ele>
        <time>2020-05-21T17:28:29.000Z</time>
      </trkpt>
      <trkpt lat="48.74547" lon="7.25825">
        <ele>405.58</ele>
        <time>2020-05-21T17:28:30.000Z</time>
      </trkpt>
      <trkpt lat="48.74552" lon="7.25826">
        <ele>406.16</ele>
        <time>2020-05-21T17:28:31.000Z</time>
      </trkpt>
      <trkpt lat="48.74557" lon="7.25827">
        <ele>405.52</ele>
        <time>2020-05-21T17:28:32.000Z</time>
      </trkpt>
      <trkpt lat="48.74563" lon="7.25827">
        <ele>406.13</ele>
        <time>2020-05-21T17:28:33.000Z</time>
      </trkpt>
      <trkpt lat="48.74568" lon="7.25828">
        <ele>406.33</ele>
        <time>2020-05-21T17:28:34.000Z</time>
      </trkpt>
      <trkpt lat="48.74573" lon="7.25828">
        <ele>406.08</ele>
        <time>2020-05-21T17:28:35.000Z</time>
      </trkpt>
      <trkpt lat="48.74579" lon="7.25828">
        <ele>405.87</ele>
        <time>2020-05-21T17:28:36.000Z</time>
      </trkpt>
      <trkpt lat="48.74585" lon="7.2583">
        <ele>405.63</ele>
        <time>2020-05-21T17:28:37.000Z</time>
      </trkpt>
      <trkpt lat="48.74589" lon="7.25833">
        <ele>405.98</ele>
        <time>2020-05-21T17:28:38.000Z</time>
      </trkpt>
      <trkpt lat="48.74594" lon="7.25835">
        <ele>406.45</ele>
        <time>2020-05-21T17:28:39.000Z</time>
      </trkpt>
      <trkpt lat="48.74599" lon="7.25837">
        <ele>406.32</ele>
        <time>2020-05-21T17:28:40.000Z</time>
      </trkpt>
      <trkpt lat="48.74604" lon="7.25837">
        <ele>407.07</ele>
        <time>2020-05-21T17:28:41.000Z</time>
      </trkpt>
      <trkpt lat="48.7461" lon="7.25839">
        <ele>407.21</ele>
        <time>2020-05-21T17:28:42.000Z</time>
      </trkpt>
      <trkpt lat="48.74614" lon="7.2584">
        <ele>406.82</ele>
        <time>2020-05-21T17:28:43.000Z</time>
      </trkpt>
      <trkpt lat="48.74623" lon="7.25843">
        <ele>406.61</ele>
        <time>2020-05-21T17:28:45.000Z</time>
      </trkpt>
      <trkpt lat="48.74628" lon="7.25846">
        <ele>406.78</ele>
        <time>2020-05-21T17:28:46.000Z</time>
      </trkpt>
      <trkpt lat="48.74633" lon="7.25849">
        <ele>407.1</ele>
        <time>2020-05-21T17:28:47.000Z</time>
      </trkpt>
      <trkpt lat="48.74638" lon="7.25853">
        <ele>407.39</ele>
        <time>2020-05-21T17:28:48.000Z</time>
      </trkpt>
      <trkpt lat="48.74643" lon="7.25857">
        <ele>407.66</ele>
        <time>2020-05-21T17:28:49.000Z</time>
      </trkpt>
      <trkpt lat="48.74648" lon="7.25861">
        <ele>408.04</ele>
        <time>2020-05-21T17:28:50.000Z</time>
      </trkpt>
      <trkpt lat="48.74653" lon="7.25865">
        <ele>408.22</ele>
        <time>2020-05-21T17:28:51.000Z</time>
      </trkpt>
      <trkpt lat="48.74658" lon="7.25869">
        <ele>409.41</ele>
        <time>2020-05-21T17:28:52.000Z</time>
      </trkpt>
      <trkpt lat="48.74663" lon="7.25874">
        <ele>410.18</ele>
        <time>2020-05-21T17:28:53.000Z</time>
      </trkpt>
      <trkpt lat="48.74668" lon="7.25877">
        <ele>409.61</ele>
        <time>2020-05-21T17:28:54.000Z</time>
      </trkpt>
      <trkpt lat="48.74672" lon="7.25881">
        <ele>408.74</ele>
        <time>2020-05-21T17:28:55.000Z</time>
      </trkpt>
      <trkpt lat="48.74677" lon="7.25885">
        <ele>406.22</ele>
        <time>2020-05-21T17:28:56.000Z</time>
      </trkpt>
      <trkpt lat="48.74682" lon="7.25888">
        <ele>406.72</ele>
        <time>2020-05-21T17:28:57.000Z</time>
      </trkpt>
      <trkpt lat="48.74687" lon="7.25891">
        <ele>406.43</ele>
        <time>2020-05-21T17:28:58.000Z</time>
      </trkpt>
      <trkpt lat="48.74692" lon="7.25893">
        <ele>407.12</ele>
        <time>2020-05-21T17:28:59.000Z</time>
      </trkpt>
      <trkpt lat="48.74697" lon="7.25896">
        <ele>405.19</ele>
        <time>2020-05-21T17:29:00.000Z</time>
      </trkpt>
      <trkpt lat="48.74702" lon="7.25898">
        <ele>405.16</ele>
        <time>2020-05-21T17:29:01.000Z</time>
      </trkpt>
      <trkpt lat="48.74707" lon="7.25901">
        <ele>404.71</ele>
        <time>2020-05-21T17:29:02.000Z</time>
      </trkpt>
      <trkpt lat="48.74711" lon="7.25904">
        <ele>404.74</ele>
        <time>2020-05-21T17:29:03.000Z</time>
      </trkpt>
      <trkpt lat="48.74716" lon="7.25907">
        <ele>403.33</ele>
        <time>2020-05-21T17:29:04.000Z</time>
      </trkpt>
      <trkpt lat="48.74741" lon="7.25924">
        <ele>402.38</ele>
        <time>2020-05-21T17:29:09.000Z</time>
      </trkpt>
      <trkpt lat="48.74746" lon="7.25927">
        <ele>401.43</ele>
        <time>2020-05-21T17:29:10.000Z</time>
      </trkpt>
      <trkpt lat="48.74751" lon="7.25931">
        <ele>401.11</ele>
        <time>2020-05-21T17:29:11.000Z</time>
      </trkpt>
      <trkpt lat="48.74756" lon="7.25936">
        <ele>401.09</ele>
        <time>2020-05-21T17:29:12.000Z</time>
      </trkpt>
      <trkpt lat="48.7476" lon="7.25943">
        <ele>401.3</ele>
        <time>2020-05-21T17:29:13.000Z</time>
      </trkpt>
      <trkpt lat="48.74761" lon="7.2595">
        <ele>401.31</ele>
        <time>2020-05-21T17:29:14.000Z</time>
      </trkpt>
      <trkpt lat="48.74762" lon="7.25958">
        <ele>400.87</ele>
        <time>2020-05-21T17:29:15.000Z</time>
      </trkpt>
      <trkpt lat="48.74758" lon="7.25969">
        <ele>400.27</ele>
        <time>2020-05-21T17:29:17.000Z</time>
      </trkpt>
      <trkpt lat="48.74752" lon="7.25978">
        <ele>402.37</ele>
        <time>2020-05-21T17:29:19.000Z</time>
      </trkpt>
      <trkpt lat="48.7475" lon="7.2599">
        <ele>404.15</ele>
        <time>2020-05-21T17:29:21.000Z</time>
      </trkpt>
      <trkpt lat="48.7475" lon="7.26002">
        <ele>403.67</ele>
        <time>2020-05-21T17:29:23.000Z</time>
      </trkpt>
      <trkpt lat="48.74752" lon="7.26015">
        <ele>404.71</ele>
        <time>2020-05-21T17:29:25.000Z</time>
      </trkpt>
      <trkpt lat="48.74754" lon="7.26026">
        <ele>405.13</ele>
        <time>2020-05-21T17:29:27.000Z</time>
      </trkpt>
      <trkpt lat="48.74756" lon="7.26037">
        <ele>405.28</ele>
        <time>2020-05-21T17:29:29.000Z</time>
      </trkpt>
      <trkpt lat="48.74759" lon="7.26048">
        <ele>404.85</ele>
        <time>2020-05-21T17:29:31.000Z</time>
      </trkpt>
      <trkpt lat="48.74761" lon="7.26057">
        <ele>403.28</ele>
        <time>2020-05-21T17:29:33.000Z</time>
      </trkpt>
      <trkpt lat="48.74763" lon="7.26066">
        <ele>404.3</ele>
        <time>2020-05-21T17:29:35.000Z</time>
      </trkpt>
      <trkpt lat="48.74766" lon="7.26074">
        <ele>406.5</ele>
        <time>2020-05-21T17:29:37.000Z</time>
      </trkpt>
      <trkpt lat="48.74769" lon="7.26082">
        <ele>405.62</ele>
        <time>2020-05-21T17:29:39.000Z</time>
      </trkpt>
      <trkpt lat="48.74771" lon="7.2609">
        <ele>407.76</ele>
        <time>2020-05-21T17:29:41.000Z</time>
      </trkpt>
      <trkpt lat="48.74774" lon="7.26098">
        <ele>408.03</ele>
        <time>2020-05-21T17:29:43.000Z</time>
      </trkpt>
      <trkpt lat="48.74777" lon="7.26106">
        <ele>408.13</ele>
        <time>2020-05-21T17:29:45.000Z</time>
      </trkpt>
      <trkpt lat="48.7478" lon="7.26115">
        <ele>408.99</ele>
        <time>2020-05-21T17:29:47.000Z</time>
      </trkpt>
      <trkpt lat="48.74783" lon="7.26124">
        <ele>409.76</ele>
        <time>2020-05-21T17:29:49.000Z</time>
      </trkpt>
      <trkpt lat="48.74786" lon="7.26133">
        <ele>409.54</ele>
        <time>2020-05-21T17:29:51.000Z</time>
      </trkpt>
      <trkpt lat="48.7479" lon="7.26143">
        <ele>411.87</ele>
        <time>2020-05-21T17:29:53.000Z</time>
      </trkpt>
      <trkpt lat="48.74793" lon="7.26153">
        <ele>411.75</ele>
        <time>2020-05-21T17:29:55.000Z</time>
      </trkpt>
      <trkpt lat="48.74796" lon="7.26164">
        <ele>412.19</ele>
        <time>2020-05-21T17:29:57.000Z</time>
      </trkpt>
      <trkpt lat="48.74799" lon="7.26174">
        <ele>412.47</ele>
        <time>2020-05-21T17:29:59.000Z</time>
      </trkpt>
      <trkpt lat="48.74802" lon="7.26183">
        <ele>410.43</ele>
        <time>2020-05-21T17:30:01.000Z</time>
      </trkpt>
      <trkpt lat="48.74805" lon="7.26193">
        <ele>410.97</ele>
        <time>2020-05-21T17:30:03.000Z</time>
      </trkpt>
      <trkpt lat="48.74808" lon="7.26204">
        <ele>410.43</ele>
        <time>2020-05-21T17:30:05.000Z</time>
      </trkpt>
      <trkpt lat="48.74811" lon="7.26217">
        <ele>410.57</ele>
        <time>2020-05-21T17:30:07.000Z</time>
      </trkpt>
      <trkpt lat="48.74812" lon="7.26224">
        <ele>410.72</ele>
        <time>2020-05-21T17:30:08.000Z</time>
      </trkpt>
      <trkpt lat="48.74813" lon="7.26231">
        <ele>411.1</ele>
        <time>2020-05-21T17:30:09.000Z</time>
      </trkpt>
      <trkpt lat="48.74815" lon="7.26237">
        <ele>410.44</ele>
        <time>2020-05-21T17:30:10.000Z</time>
      </trkpt>
      <trkpt lat="48.74816" lon="7.26245">
        <ele>409.95</ele>
        <time>2020-05-21T17:30:11.000Z</time>
      </trkpt>
      <trkpt lat="48.74818" lon="7.26251">
        <ele>410.03</ele>
        <time>2020-05-21T17:30:12.000Z</time>
      </trkpt>
      <trkpt lat="48.74819" lon="7.26259">
        <ele>408.93</ele>
        <time>2020-05-21T17:30:13.000Z</time>
      </trkpt>
      <trkpt lat="48.74821" lon="7.26266">
        <ele>408.96</ele>
        <time>2020-05-21T17:30:14.000Z</time>
      </trkpt>
      <trkpt lat="48.74823" lon="7.26274">
        <ele>409.17</ele>
        <time>2020-05-21T17:30:15.000Z</time>
      </trkpt>
      <trkpt lat="48.74825" lon="7.26282">
        <ele>408.76</ele>
        <time>2020-05-21T17:30:16.000Z</time>
      </trkpt>
      <trkpt lat="48.74827" lon="7.2629">
        <ele>408.1</ele>
        <time>2020-05-21T17:30:17.000Z</time>
      </trkpt>
      <trkpt lat="48.74831" lon="7.26298">
        <ele>407.61</ele>
        <time>2020-05-21T17:30:18.000Z</time>
      </trkpt>
      <trkpt lat="48.74845" lon="7.26322">
        <ele>408.04</ele>
        <time>2020-05-21T17:30:21.000Z</time>
      </trkpt>
      <trkpt lat="48.74847" lon="7.26332">
        <ele>407.12</ele>
        <time>2020-05-21T17:30:22.000Z</time>
      </trkpt>
      <trkpt lat="48.74851" lon="7.26341">
        <ele>407.03</ele>
        <time>2020-05-21T17:30:23.000Z</time>
      </trkpt>
      <trkpt lat="48.74853" lon="7.2635">
        <ele>406.88</ele>
        <time>2020-05-21T17:30:24.000Z</time>
      </trkpt>
      <trkpt lat="48.74855" lon="7.26358">
        <ele>406.48</ele>
        <time>2020-05-21T17:30:25.000Z</time>
      </trkpt>
      <trkpt lat="48.74859" lon="7.26367">
        <ele>405.1</ele>
        <time>2020-05-21T17:30:26.000Z</time>
      </trkpt>
      <trkpt lat="48.74862" lon="7.26373">
        <ele>404.42</ele>
        <time>2020-05-21T17:30:27.000Z</time>
      </trkpt>
      <trkpt lat="48.74864" lon="7.26381">
        <ele>403.35</ele>
        <time>2020-05-21T17:30:28.000Z</time>
      </trkpt>
      <trkpt lat="48.74866" lon="7.2639">
        <ele>403</ele>
        <time>2020-05-21T17:30:29.000Z</time>
      </trkpt>
      <trkpt lat="48.74868" lon="7.26397">
        <ele>402.82</ele>
        <time>2020-05-21T17:30:30.000Z</time>
      </trkpt>
      <trkpt lat="48.7487" lon="7.26404">
        <ele>402.13</ele>
        <time>2020-05-21T17:30:31.000Z</time>
      </trkpt>
      <trkpt lat="48.74871" lon="7.26411">
        <ele>402.02</ele>
        <time>2020-05-21T17:30:32.000Z</time>
      </trkpt>
      <trkpt lat="48.74872" lon="7.26419">
        <ele>400.61</ele>
        <time>2020-05-21T17:30:33.000Z</time>
      </trkpt>
      <trkpt lat="48.74874" lon="7.26428">
        <ele>400.51</ele>
        <time>2020-05-21T17:30:34.000Z</time>
      </trkpt>
      <trkpt lat="48.74874" lon="7.26438">
        <ele>399.52</ele>
        <time>2020-05-21T17:30:35.000Z</time>
      </trkpt>
      <trkpt lat="48.74875" lon="7.26447">
        <ele>399.41</ele>
        <time>2020-05-21T17:30:36.000Z</time>
      </trkpt>
      <trkpt lat="48.74876" lon="7.26456">
        <ele>399.37</ele>
        <time>2020-05-21T17:30:37.000Z</time>
      </trkpt>
      <trkpt lat="48.74876" lon="7.26465">
        <ele>397.9</ele>
        <time>2020-05-21T17:30:38.000Z</time>
      </trkpt>
      <trkpt lat="48.74876" lon="7.26474">
        <ele>398.42</ele>
        <time>2020-05-21T17:30:39.000Z</time>
      </trkpt>
      <trkpt lat="48.74875" lon="7.26485">
        <ele>397.29</ele>
        <time>2020-05-21T17:30:40.000Z</time>
      </trkpt>
      <trkpt lat="48.74874" lon="7.26497">
        <ele>396.65</ele>
        <time>2020-05-21T17:30:41.000Z</time>
      </trkpt>
      <trkpt lat="48.74872" lon="7.2651">
        <ele>394.96</ele>
        <time>2020-05-21T17:30:42.000Z</time>
      </trkpt>
      <trkpt lat="48.74871" lon="7.26524">
        <ele>393.07</ele>
        <time>2020-05-21T17:30:43.000Z</time>
      </trkpt>
      <trkpt lat="48.74871" lon="7.26534">
        <ele>392.42</ele>
        <time>2020-05-21T17:30:44.000Z</time>
      </trkpt>
      <trkpt lat="48.74869" lon="7.26544">
        <ele>391.49</ele>
        <time>2020-05-21T17:30:45.000Z</time>
      </trkpt>
      <trkpt lat="48.74869" lon="7.26555">
        <ele>390.87</ele>
        <time>2020-05-21T17:30:46.000Z</time>
      </trkpt>
      <trkpt lat="48.74868" lon="7.26564">
        <ele>389.84</ele>
        <time>2020-05-21T17:30:47.000Z</time>
      </trkpt>
      <trkpt lat="48.74866" lon="7.26571">
        <ele>389.05</ele>
        <time>2020-05-21T17:30:48.000Z</time>
      </trkpt>
      <trkpt lat="48.74865" lon="7.2658">
        <ele>389.58</ele>
        <time>2020-05-21T17:30:49.000Z</time>
      </trkpt>
      <trkpt lat="48.74864" lon="7.26589">
        <ele>388.95</ele>
        <time>2020-05-21T17:30:50.000Z</time>
      </trkpt>
      <trkpt lat="48.74862" lon="7.26597">
        <ele>388.25</ele>
        <time>2020-05-21T17:30:51.000Z</time>
      </trkpt>
      <trkpt lat="48.74861" lon="7.26606">
        <ele>389.96</ele>
        <time>2020-05-21T17:30:52.000Z</time>
      </trkpt>
      <trkpt lat="48.74859" lon="7.26614">
        <ele>389.64</ele>
        <time>2020-05-21T17:30:53.000Z</time>
      </trkpt>
      <trkpt lat="48.74857" lon="7.26622">
        <ele>389.68</ele>
        <time>2020-05-21T17:30:54.000Z</time>
      </trkpt>
      <trkpt lat="48.74855" lon="7.26629">
        <ele>389.49</ele>
        <time>2020-05-21T17:30:55.000Z</time>
      </trkpt>
      <trkpt lat="48.74854" lon="7.26637">
        <ele>387.74</ele>
        <time>2020-05-21T17:30:56.000Z</time>
      </trkpt>
      <trkpt lat="48.74854" lon="7.26644">
        <ele>387.98</ele>
        <time>2020-05-21T17:30:57.000Z</time>
      </trkpt>
      <trkpt lat="48.74853" lon="7.26651">
        <ele>387.97</ele>
        <time>2020-05-21T17:30:58.000Z</time>
      </trkpt>
      <trkpt lat="48.74851" lon="7.26665">
        <ele>388.08</ele>
        <time>2020-05-21T17:31:00.000Z</time>
      </trkpt>
      <trkpt lat="48.74851" lon="7.26672">
        <ele>388.71</ele>
        <time>2020-05-21T17:31:01.000Z</time>
      </trkpt>
      <trkpt lat="48.7485" lon="7.26681">
        <ele>389</ele>
        <time>2020-05-21T17:31:02.000Z</time>
      </trkpt>
      <trkpt lat="48.74849" lon="7.26688">
        <ele>390.08</ele>
        <time>2020-05-21T17:31:03.000Z</time>
      </trkpt>
      <trkpt lat="48.74848" lon="7.26697">
        <ele>390.05</ele>
        <time>2020-05-21T17:31:04.000Z</time>
      </trkpt>
      <trkpt lat="48.74848" lon="7.26706">
        <ele>390.2</ele>
        <time>2020-05-21T17:31:05.000Z</time>
      </trkpt>
      <trkpt lat="48.74848" lon="7.26714">
        <ele>390.07</ele>
        <time>2020-05-21T17:31:06.000Z</time>
      </trkpt>
      <trkpt lat="48.74849" lon="7.26726">
        <ele>390.72</ele>
        <time>2020-05-21T17:31:08.000Z</time>
      </trkpt>
      <trkpt lat="48.74849" lon="7.26739">
        <ele>391.14</ele>
        <time>2020-05-21T17:31:10.000Z</time>
      </trkpt>
      <trkpt lat="48.74848" lon="7.26746">
        <ele>389.57</ele>
        <time>2020-05-21T17:31:11.000Z</time>
      </trkpt>
      <trkpt lat="48.74849" lon="7.26754">
        <ele>388.19</ele>
        <time>2020-05-21T17:31:12.000Z</time>
      </trkpt>
      <trkpt lat="48.74847" lon="7.26762">
        <ele>386.99</ele>
        <time>2020-05-21T17:31:14.000Z</time>
      </trkpt>
      <trkpt lat="48.74845" lon="7.26773">
        <ele>390.19</ele>
        <time>2020-05-21T17:31:16.000Z</time>
      </trkpt>
      <trkpt lat="48.74843" lon="7.2678">
        <ele>386.65</ele>
        <time>2020-05-21T17:31:18.000Z</time>
      </trkpt>
      <trkpt lat="48.74842" lon="7.26786">
        <ele>388.64</ele>
        <time>2020-05-21T17:31:20.000Z</time>
      </trkpt>
      <trkpt lat="48.74839" lon="7.26794">
        <ele>389.77</ele>
        <time>2020-05-21T17:31:23.000Z</time>
      </trkpt>
      <trkpt lat="48.74843" lon="7.26799">
        <ele>389.87</ele>
        <time>2020-05-21T17:31:26.000Z</time>
      </trkpt>
      <trkpt lat="48.74851" lon="7.268">
        <ele>390.48</ele>
        <time>2020-05-21T17:31:28.000Z</time>
      </trkpt>
      <trkpt lat="48.74857" lon="7.26797">
        <ele>392.39</ele>
        <time>2020-05-21T17:31:30.000Z</time>
      </trkpt>
      <trkpt lat="48.7486" lon="7.26782">
        <ele>390.3</ele>
        <time>2020-05-21T17:31:32.000Z</time>
      </trkpt>
      <trkpt lat="48.74862" lon="7.26776">
        <ele>390.11</ele>
        <time>2020-05-21T17:31:33.000Z</time>
      </trkpt>
      <trkpt lat="48.74864" lon="7.26769">
        <ele>389.63</ele>
        <time>2020-05-21T17:31:34.000Z</time>
      </trkpt>
      <trkpt lat="48.74867" lon="7.26759">
        <ele>386.54</ele>
        <time>2020-05-21T17:31:36.000Z</time>
      </trkpt>
      <trkpt lat="48.74868" lon="7.26747">
        <ele>386.55</ele>
        <time>2020-05-21T17:31:38.000Z</time>
      </trkpt>
      <trkpt lat="48.74869" lon="7.26738">
        <ele>383.56</ele>
        <time>2020-05-21T17:31:39.000Z</time>
      </trkpt>
      <trkpt lat="48.7487" lon="7.26732">
        <ele>383.5</ele>
        <time>2020-05-21T17:31:40.000Z</time>
      </trkpt>
      <trkpt lat="48.74873" lon="7.26724">
        <ele>382.98</ele>
        <time>2020-05-21T17:31:41.000Z</time>
      </trkpt>
      <trkpt lat="48.74876" lon="7.26715">
        <ele>382.32</ele>
        <time>2020-05-21T17:31:42.000Z</time>
      </trkpt>
      <trkpt lat="48.74879" lon="7.26706">
        <ele>381.34</ele>
        <time>2020-05-21T17:31:43.000Z</time>
      </trkpt>
      <trkpt lat="48.74881" lon="7.26695">
        <ele>381.55</ele>
        <time>2020-05-21T17:31:44.000Z</time>
      </trkpt>
      <trkpt lat="48.74882" lon="7.26686">
        <ele>381.11</ele>
        <time>2020-05-21T17:31:45.000Z</time>
      </trkpt>
      <trkpt lat="48.74884" lon="7.26678">
        <ele>380.17</ele>
        <time>2020-05-21T17:31:46.000Z</time>
      </trkpt>
      <trkpt lat="48.74887" lon="7.26671">
        <ele>379.13</ele>
        <time>2020-05-21T17:31:47.000Z</time>
      </trkpt>
      <trkpt lat="48.749" lon="7.26649">
        <ele>381.14</ele>
        <time>2020-05-21T17:31:50.000Z</time>
      </trkpt>
      <trkpt lat="48.74902" lon="7.26639">
        <ele>382.26</ele>
        <time>2020-05-21T17:31:52.000Z</time>
      </trkpt>
      <trkpt lat="48.74905" lon="7.26631">
        <ele>380.04</ele>
        <time>2020-05-21T17:31:54.000Z</time>
      </trkpt>
      <trkpt lat="48.74913" lon="7.26629">
        <ele>378.18</ele>
        <time>2020-05-21T17:31:56.000Z</time>
      </trkpt>
      <trkpt lat="48.74917" lon="7.26625">
        <ele>377.28</ele>
        <time>2020-05-21T17:31:57.000Z</time>
      </trkpt>
      <trkpt lat="48.74947" lon="7.26603">
        <ele>372.12</ele>
        <time>2020-05-21T17:32:03.000Z</time>
      </trkpt>
      <trkpt lat="48.7496" lon="7.26594">
        <ele>374.74</ele>
        <time>2020-05-21T17:32:06.000Z</time>
      </trkpt>
      <trkpt lat="48.74967" lon="7.26591">
        <ele>375.02</ele>
        <time>2020-05-21T17:32:08.000Z</time>
      </trkpt>
      <trkpt lat="48.74974" lon="7.26588">
        <ele>375.77</ele>
        <time>2020-05-21T17:32:10.000Z</time>
      </trkpt>
      <trkpt lat="48.74984" lon="7.26594">
        <ele>375.92</ele>
        <time>2020-05-21T17:32:12.000Z</time>
      </trkpt>
      <trkpt lat="48.7499" lon="7.26596">
        <ele>376.29</ele>
        <time>2020-05-21T17:32:14.000Z</time>
      </trkpt>
      <trkpt lat="48.74999" lon="7.26594">
        <ele>377.52</ele>
        <time>2020-05-21T17:32:16.000Z</time>
      </trkpt>
      <trkpt lat="48.75007" lon="7.26597">
        <ele>376.67</ele>
        <time>2020-05-21T17:32:18.000Z</time>
      </trkpt>
      <trkpt lat="48.75012" lon="7.26597">
        <ele>376.61</ele>
        <time>2020-05-21T17:32:20.000Z</time>
      </trkpt>
      <trkpt lat="48.75015" lon="7.26603">
        <ele>377.9</ele>
        <time>2020-05-21T17:32:23.000Z</time>
      </trkpt>
      <trkpt lat="48.75018" lon="7.26608">
        <ele>377.86</ele>
        <time>2020-05-21T17:32:25.000Z</time>
      </trkpt>
      <trkpt lat="48.75022" lon="7.26614">
        <ele>376.23</ele>
        <time>2020-05-21T17:32:27.000Z</time>
      </trkpt>
      <trkpt lat="48.75027" lon="7.26621">
        <ele>373.31</ele>
        <time>2020-05-21T17:32:29.000Z</time>
      </trkpt>
      <trkpt lat="48.75032" lon="7.26627">
        <ele>372.52</ele>
        <time>2020-05-21T17:32:31.000Z</time>
      </trkpt>
      <trkpt lat="48.75038" lon="7.26635">
        <ele>371.98</ele>
        <time>2020-05-21T17:32:33.000Z</time>
      </trkpt>
      <trkpt lat="48.75043" lon="7.26639">
        <ele>372.41</ele>
        <time>2020-05-21T17:32:35.000Z</time>
      </trkpt>
      <trkpt lat="48.75047" lon="7.26645">
        <ele>377.99</ele>
        <time>2020-05-21T17:32:38.000Z</time>
      </trkpt>
      <trkpt lat="48.75051" lon="7.26649">
        <ele>378.65</ele>
        <time>2020-05-21T17:32:41.000Z</time>
      </trkpt>
      <trkpt lat="48.75057" lon="7.26653">
        <ele>378.21</ele>
        <time>2020-05-21T17:32:44.000Z</time>
      </trkpt>
      <trkpt lat="48.75063" lon="7.26658">
        <ele>378.84</ele>
        <time>2020-05-21T17:32:46.000Z</time>
      </trkpt>
      <trkpt lat="48.75066" lon="7.26663">
        <ele>384.32</ele>
        <time>2020-05-21T17:32:48.000Z</time>
      </trkpt>
      <trkpt lat="48.7507" lon="7.2667">
        <ele>384.63</ele>
        <time>2020-05-21T17:32:51.000Z</time>
      </trkpt>
      <trkpt lat="48.75073" lon="7.26676">
        <ele>385.25</ele>
        <time>2020-05-21T17:32:53.000Z</time>
      </trkpt>
      <trkpt lat="48.75078" lon="7.26681">
        <ele>382.87</ele>
        <time>2020-05-21T17:32:56.000Z</time>
      </trkpt>
      <trkpt lat="48.7508" lon="7.26686">
        <ele>383.41</ele>
        <time>2020-05-21T17:32:58.000Z</time>
      </trkpt>
      <trkpt lat="48.75085" lon="7.26694">
        <ele>386.15</ele>
        <time>2020-05-21T17:33:00.000Z</time>
      </trkpt>
      <trkpt lat="48.75089" lon="7.26702">
        <ele>384.63</ele>
        <time>2020-05-21T17:33:02.000Z</time>
      </trkpt>
      <trkpt lat="48.75094" lon="7.26708">
        <ele>387.76</ele>
        <time>2020-05-21T17:33:05.000Z</time>
      </trkpt>
      <trkpt lat="48.75099" lon="7.26714">
        <ele>388.95</ele>
        <time>2020-05-21T17:33:08.000Z</time>
      </trkpt>
      <trkpt lat="48.75104" lon="7.26717">
        <ele>387.51</ele>
        <time>2020-05-21T17:33:10.000Z</time>
      </trkpt>
      <trkpt lat="48.75109" lon="7.26721">
        <ele>388.3</ele>
        <time>2020-05-21T17:33:12.000Z</time>
      </trkpt>
      <trkpt lat="48.75114" lon="7.26725">
        <ele>388.68</ele>
        <time>2020-05-21T17:33:14.000Z</time>
      </trkpt>
      <trkpt lat="48.75119" lon="7.2673">
        <ele>388.93</ele>
        <time>2020-05-21T17:33:16.000Z</time>
      </trkpt>
      <trkpt lat="48.75125" lon="7.26734">
        <ele>387.76</ele>
        <time>2020-05-21T17:33:18.000Z</time>
      </trkpt>
      <trkpt lat="48.7513" lon="7.26737">
        <ele>385.49</ele>
        <time>2020-05-21T17:33:20.000Z</time>
      </trkpt>
      <trkpt lat="48.75136" lon="7.26738">
        <ele>383.51</ele>
        <time>2020-05-21T17:33:22.000Z</time>
      </trkpt>
      <trkpt lat="48.75143" lon="7.26739">
        <ele>385.05</ele>
        <time>2020-05-21T17:33:24.000Z</time>
      </trkpt>
      <trkpt lat="48.75148" lon="7.2674">
        <ele>382.98</ele>
        <time>2020-05-21T17:33:26.000Z</time>
      </trkpt>
      <trkpt lat="48.75153" lon="7.26739">
        <ele>388.89</ele>
        <time>2020-05-21T17:33:29.000Z</time>
      </trkpt>
      <trkpt lat="48.75161" lon="7.26738">
        <ele>379.55</ele>
        <time>2020-05-21T17:33:32.000Z</time>
      </trkpt>
      <trkpt lat="48.75166" lon="7.26736">
        <ele>380.1</ele>
        <time>2020-05-21T17:33:35.000Z</time>
      </trkpt>
      <trkpt lat="48.75173" lon="7.26734">
        <ele>378.89</ele>
        <time>2020-05-21T17:33:38.000Z</time>
      </trkpt>
      <trkpt lat="48.7518" lon="7.2673">
        <ele>379.37</ele>
        <time>2020-05-21T17:33:40.000Z</time>
      </trkpt>
      <trkpt lat="48.75215" lon="7.26731">
        <ele>374.34</ele>
        <time>2020-05-21T17:33:46.000Z</time>
      </trkpt>
      <trkpt lat="48.75222" lon="7.26728">
        <ele>374.84</ele>
        <time>2020-05-21T17:33:49.000Z</time>
      </trkpt>
      <trkpt lat="48.75228" lon="7.2673">
        <ele>372.95</ele>
        <time>2020-05-21T17:33:51.000Z</time>
      </trkpt>
      <trkpt lat="48.75233" lon="7.26727">
        <ele>371.18</ele>
        <time>2020-05-21T17:33:53.000Z</time>
      </trkpt>
      <trkpt lat="48.75241" lon="7.26724">
        <ele>373.92</ele>
        <time>2020-05-21T17:33:55.000Z</time>
      </trkpt>
      <trkpt lat="48.75245" lon="7.26721">
        <ele>376.19</ele>
        <time>2020-05-21T17:33:57.000Z</time>
      </trkpt>
      <trkpt lat="48.75252" lon="7.26716">
        <ele>377.75</ele>
        <time>2020-05-21T17:34:00.000Z</time>
      </trkpt>
      <trkpt lat="48.7526" lon="7.26713">
        <ele>377.87</ele>
        <time>2020-05-21T17:34:02.000Z</time>
      </trkpt>
      <trkpt lat="48.75265" lon="7.26711">
        <ele>376.63</ele>
        <time>2020-05-21T17:34:03.000Z</time>
      </trkpt>
      <trkpt lat="48.75272" lon="7.26709">
        <ele>376.59</ele>
        <time>2020-05-21T17:34:05.000Z</time>
      </trkpt>
      <trkpt lat="48.75279" lon="7.26706">
        <ele>377.16</ele>
        <time>2020-05-21T17:34:07.000Z</time>
      </trkpt>
      <trkpt lat="48.75286" lon="7.26704">
        <ele>375.67</ele>
        <time>2020-05-21T17:34:09.000Z</time>
      </trkpt>
      <trkpt lat="48.75294" lon="7.26701">
        <ele>376.38</ele>
        <time>2020-05-21T17:34:11.000Z</time>
      </trkpt>
      <trkpt lat="48.75302" lon="7.26699">
        <ele>374.26</ele>
        <time>2020-05-21T17:34:13.000Z</time>
      </trkpt>
      <trkpt lat="48.75309" lon="7.26695">
        <ele>375.63</ele>
        <time>2020-05-21T17:34:15.000Z</time>
      </trkpt>
      <trkpt lat="48.75316" lon="7.26691">
        <ele>376.85</ele>
        <time>2020-05-21T17:34:17.000Z</time>
      </trkpt>
      <trkpt lat="48.75324" lon="7.26687">
        <ele>376.44</ele>
        <time>2020-05-21T17:34:19.000Z</time>
      </trkpt>
      <trkpt lat="48.75332" lon="7.26685">
        <ele>376.99</ele>
        <time>2020-05-21T17:34:21.000Z</time>
      </trkpt>
      <trkpt lat="48.75339" lon="7.26684">
        <ele>377.59</ele>
        <time>2020-05-21T17:34:23.000Z</time>
      </trkpt>
      <trkpt lat="48.75347" lon="7.26682">
        <ele>380.73</ele>
        <time>2020-05-21T17:34:25.000Z</time>
      </trkpt>
      <trkpt lat="48.75355" lon="7.26676">
        <ele>380.85</ele>
        <time>2020-05-21T17:34:27.000Z</time>
      </trkpt>
      <trkpt lat="48.75364" lon="7.26671">
        <ele>378.96</ele>
        <time>2020-05-21T17:34:28.000Z</time>
      </trkpt>
      <trkpt lat="48.75371" lon="7.26669">
        <ele>378.14</ele>
        <time>2020-05-21T17:34:29.000Z</time>
      </trkpt>
      <trkpt lat="48.75379" lon="7.26665">
        <ele>377.7</ele>
        <time>2020-05-21T17:34:30.000Z</time>
      </trkpt>
      <trkpt lat="48.75386" lon="7.26662">
        <ele>379.38</ele>
        <time>2020-05-21T17:34:31.000Z</time>
      </trkpt>
      <trkpt lat="48.75397" lon="7.26657">
        <ele>375.73</ele>
        <time>2020-05-21T17:34:33.000Z</time>
      </trkpt>
      <trkpt lat="48.75402" lon="7.26656">
        <ele>374.58</ele>
        <time>2020-05-21T17:34:34.000Z</time>
      </trkpt>
      <trkpt lat="48.7541" lon="7.26655">
        <ele>374.93</ele>
        <time>2020-05-21T17:34:35.000Z</time>
      </trkpt>
      <trkpt lat="48.75417" lon="7.26657">
        <ele>374.34</ele>
        <time>2020-05-21T17:34:36.000Z</time>
      </trkpt>
      <trkpt lat="48.75425" lon="7.26656">
        <ele>375.1</ele>
        <time>2020-05-21T17:34:37.000Z</time>
      </trkpt>
      <trkpt lat="48.75432" lon="7.26653">
        <ele>374.6</ele>
        <time>2020-05-21T17:34:38.000Z</time>
      </trkpt>
      <trkpt lat="48.75437" lon="7.26651">
        <ele>373.78</ele>
        <time>2020-05-21T17:34:39.000Z</time>
      </trkpt>
      <trkpt lat="48.75446" lon="7.26651">
        <ele>374.93</ele>
        <time>2020-05-21T17:34:40.000Z</time>
      </trkpt>
      <trkpt lat="48.75451" lon="7.26648">
        <ele>374.61</ele>
        <time>2020-05-21T17:34:41.000Z</time>
      </trkpt>
      <trkpt lat="48.75459" lon="7.26644">
        <ele>375.02</ele>
        <time>2020-05-21T17:34:42.000Z</time>
      </trkpt>
      <trkpt lat="48.75469" lon="7.26642">
        <ele>375.39</ele>
        <time>2020-05-21T17:34:43.000Z</time>
      </trkpt>
      <trkpt lat="48.75475" lon="7.26637">
        <ele>373.45</ele>
        <time>2020-05-21T17:34:44.000Z</time>
      </trkpt>
      <trkpt lat="48.75481" lon="7.26631">
        <ele>373.24</ele>
        <time>2020-05-21T17:34:45.000Z</time>
      </trkpt>
      <trkpt lat="48.75488" lon="7.26625">
        <ele>372.33</ele>
        <time>2020-05-21T17:34:46.000Z</time>
      </trkpt>
      <trkpt lat="48.75495" lon="7.26619">
        <ele>369.88</ele>
        <time>2020-05-21T17:34:47.000Z</time>
      </trkpt>
      <trkpt lat="48.75501" lon="7.26617">
        <ele>372.85</ele>
        <time>2020-05-21T17:34:48.000Z</time>
      </trkpt>
      <trkpt lat="48.75505" lon="7.26611">
        <ele>371.88</ele>
        <time>2020-05-21T17:34:49.000Z</time>
      </trkpt>
      <trkpt lat="48.75511" lon="7.26598">
        <ele>369.11</ele>
        <time>2020-05-21T17:34:51.000Z</time>
      </trkpt>
      <trkpt lat="48.75515" lon="7.26592">
        <ele>368.41</ele>
        <time>2020-05-21T17:34:52.000Z</time>
      </trkpt>
      <trkpt lat="48.75519" lon="7.26586">
        <ele>371.99</ele>
        <time>2020-05-21T17:34:53.000Z</time>
      </trkpt>
      <trkpt lat="48.75523" lon="7.2658">
        <ele>373.1</ele>
        <time>2020-05-21T17:34:54.000Z</time>
      </trkpt>
      <trkpt lat="48.75527" lon="7.26574">
        <ele>372.81</ele>
        <time>2020-05-21T17:34:55.000Z</time>
      </trkpt>
      <trkpt lat="48.75534" lon="7.26565">
        <ele>371.24</ele>
        <time>2020-05-21T17:34:56.000Z</time>
      </trkpt>
      <trkpt lat="48.75539" lon="7.2656">
        <ele>371.86</ele>
        <time>2020-05-21T17:34:57.000Z</time>
      </trkpt>
      <trkpt lat="48.75546" lon="7.26556">
        <ele>370.89</ele>
        <time>2020-05-21T17:34:58.000Z</time>
      </trkpt>
      <trkpt lat="48.75552" lon="7.2655">
        <ele>368.8</ele>
        <time>2020-05-21T17:34:59.000Z</time>
      </trkpt>
      <trkpt lat="48.7556" lon="7.26546">
        <ele>367.91</ele>
        <time>2020-05-21T17:35:00.000Z</time>
      </trkpt>
      <trkpt lat="48.75567" lon="7.26539">
        <ele>367.91</ele>
        <time>2020-05-21T17:35:01.000Z</time>
      </trkpt>
      <trkpt lat="48.75573" lon="7.26533">
        <ele>368.97</ele>
        <time>2020-05-21T17:35:02.000Z</time>
      </trkpt>
      <trkpt lat="48.7558" lon="7.26528">
        <ele>366.09</ele>
        <time>2020-05-21T17:35:03.000Z</time>
      </trkpt>
      <trkpt lat="48.75586" lon="7.26524">
        <ele>365</ele>
        <time>2020-05-21T17:35:04.000Z</time>
      </trkpt>
      <trkpt lat="48.75594" lon="7.2652">
        <ele>363.82</ele>
        <time>2020-05-21T17:35:05.000Z</time>
      </trkpt>
      <trkpt lat="48.756" lon="7.26517">
        <ele>363.93</ele>
        <time>2020-05-21T17:35:06.000Z</time>
      </trkpt>
      <trkpt lat="48.75611" lon="7.26516">
        <ele>361.7</ele>
        <time>2020-05-21T17:35:08.000Z</time>
      </trkpt>
    </trkseg>
  </trk>
</gpx>